createdAt,value
2022-12-29T00:01:44.051Z,101967.50
2022-12-29T00:04:15.500Z,101962.28
2022-12-29T00:06:44.080Z,101957.44
2022-12-29T00:09:16.846Z,101955.78
2022-12-29T00:11:43.995Z,101952.47
2022-12-29T00:14:38.422Z,101951.41
2022-12-29T00:17:05.327Z,101953.44
2022-12-29T00:19:50.962Z,101955.47
2022-12-29T00:22:36.719Z,101947.16
2022-12-29T00:25:23.288Z,101949.19
2022-12-29T00:28:08.918Z,101955.34
2022-12-29T00:30:55.440Z,101952.38
2022-12-29T00:33:45.141Z,101946.69
2022-12-29T00:36:21.202Z,101948.00
2022-12-29T00:39:12.628Z,101950.34
2022-12-29T00:41:58.272Z,101945.97
2022-12-29T00:44:25.128Z,101942.28
2022-12-29T00:46:52.051Z,101952.81
2022-12-29T00:49:31.529Z,101949.75
2022-12-29T00:52:03.261Z,101946.66
2022-12-29T00:54:32.491Z,101948.13
2022-12-29T00:56:59.497Z,101940.00
2022-12-29T00:59:26.985Z,101938.38
2022-12-29T01:01:55.187Z,101936.22
2022-12-29T01:04:24.541Z,101936.94
2022-12-29T01:06:52.092Z,101929.28
2022-12-29T01:09:38.726Z,101926.16
2022-12-29T01:12:07.444Z,101918.81
2022-12-29T01:14:35.431Z,101924.16
2022-12-29T01:17:03.863Z,101911.56
2022-12-29T01:19:30.772Z,101911.22
2022-12-29T01:21:57.950Z,101899.81
2022-12-29T01:24:26.492Z,101901.19
2022-12-29T01:26:53.549Z,101895.28
2022-12-29T01:29:20.517Z,101892.06
2022-12-29T01:31:47.528Z,101885.69
2022-12-29T01:34:14.618Z,101885.03
2022-12-29T01:36:41.467Z,101877.78
2022-12-29T01:39:08.460Z,101879.28
2022-12-29T01:41:35.285Z,101872.19
2022-12-29T01:44:03.790Z,101869.81
2022-12-29T01:46:49.618Z,101858.78
2022-12-29T01:49:20.284Z,101856.97
2022-12-29T01:51:49.327Z,101845.00
2022-12-29T01:54:30.547Z,101850.34
2022-12-29T01:57:01.194Z,101841.16
2022-12-29T01:59:35.796Z,101840.59
2022-12-29T02:02:02.799Z,101843.31
2022-12-29T02:04:33.372Z,101842.50
2022-12-29T02:07:05.327Z,101841.06
2022-12-29T02:09:32.374Z,101831.06
2022-12-29T02:12:00.661Z,101830.97
2022-12-29T02:14:27.457Z,101833.97
2022-12-29T02:17:07.512Z,101835.56
2022-12-29T02:19:56.207Z,101832.09
2022-12-29T02:23:14.228Z,101834.13
2022-12-29T02:26:21.252Z,101831.69
2022-12-29T02:29:28.102Z,101830.94
2022-12-29T02:32:15.139Z,101825.47
2022-12-29T02:35:04.229Z,101823.53
2022-12-29T02:37:45.851Z,101819.75
2022-12-29T02:40:15.903Z,101819.81
2022-12-29T02:42:48.420Z,101817.50
2022-12-29T02:45:33.893Z,101799.97
2022-12-29T02:48:10.207Z,101807.91
2022-12-29T02:50:48.538Z,101810.06
2022-12-29T02:53:38.695Z,101806.69
2022-12-29T02:56:05.753Z,101799.13
2022-12-29T02:58:32.635Z,101807.31
2022-12-29T03:01:11.686Z,101810.28
2022-12-29T03:03:56.978Z,101809.13
2022-12-29T03:06:39.158Z,101802.78
2022-12-29T03:09:18.347Z,101803.19
2022-12-29T03:26:17.312Z,101798.63
2022-12-29T03:28:52.987Z,101802.28
2022-12-29T03:31:25.407Z,101810.59
2022-12-29T03:33:54.765Z,101815.81
2022-12-29T03:36:31.785Z,101818.88
2022-12-29T03:39:07.033Z,101814.59
2022-12-29T03:41:35.555Z,101826.00
2022-12-29T03:44:06.538Z,101831.69
2022-12-29T03:46:35.130Z,101828.97
2022-12-29T03:49:03.009Z,101831.97
2022-12-29T03:51:30.099Z,101825.63
2022-12-29T03:53:57.706Z,101828.19
2022-12-29T03:56:25.240Z,101835.22
2022-12-29T03:58:53.519Z,101827.28
2022-12-29T04:01:38.160Z,101836.38
2022-12-29T04:04:05.554Z,101838.38
2022-12-29T04:06:32.608Z,101837.56
2022-12-29T04:09:06.353Z,101846.03
2022-12-29T04:11:39.295Z,101844.69
2022-12-29T04:14:06.701Z,101845.88
2022-12-29T04:16:36.854Z,101840.91
2022-12-29T04:19:07.195Z,101844.03
2022-12-29T04:21:36.024Z,101845.94
2022-12-29T04:24:03.125Z,101847.28
2022-12-29T04:26:31.833Z,101849.88
2022-12-29T04:29:08.455Z,101848.31
2022-12-29T04:31:43.315Z,101844.44
2022-12-29T04:34:11.058Z,101855.63
2022-12-29T04:36:40.850Z,101851.69
2022-12-29T04:39:08.351Z,101845.50
2022-12-29T04:41:36.709Z,101844.22
2022-12-29T04:44:08.616Z,101843.50
2022-12-29T04:46:47.447Z,101845.06
2022-12-29T04:49:34.236Z,101848.41
2022-12-29T04:52:11.620Z,101853.53
2022-12-29T04:54:38.825Z,101840.00
2022-12-29T04:57:15.869Z,101843.56
2022-12-29T04:59:48.829Z,101848.78
2022-12-29T05:02:17.111Z,101844.38
2022-12-29T05:04:47.477Z,101842.81
2022-12-29T05:07:16.010Z,101851.75
2022-12-29T05:09:44.592Z,101852.81
2022-12-29T05:12:11.606Z,101858.03
2022-12-29T05:14:47.147Z,101852.34
2022-12-29T05:18:10.600Z,101845.16
2022-12-29T05:20:40.093Z,101845.44
2022-12-29T05:23:07.756Z,101847.44
2022-12-29T05:25:37.384Z,101844.50
2022-12-29T05:28:14.931Z,101839.09
2022-12-29T05:30:52.338Z,101846.03
2022-12-29T05:33:20.966Z,101839.50
2022-12-29T05:35:50.074Z,101842.31
2022-12-29T05:38:18.556Z,101836.94
2022-12-29T05:40:46.206Z,101843.91
2022-12-29T05:43:33.277Z,101851.53
2022-12-29T05:46:17.688Z,101853.84
2022-12-29T05:49:18.416Z,101853.16
2022-12-29T05:52:42.643Z,101848.06
2022-12-29T05:55:09.670Z,101857.13
2022-12-29T05:57:38.740Z,101856.03
2022-12-29T06:00:11.714Z,101853.34
2022-12-29T06:02:47.116Z,101861.84
2022-12-29T06:05:16.172Z,101858.72
2022-12-29T06:07:43.883Z,101848.53
2022-12-29T06:10:10.941Z,101847.91
2022-12-29T06:12:44.733Z,101857.63
2022-12-29T06:15:11.898Z,101858.66
2022-12-29T06:17:41.797Z,101858.50
2022-12-29T06:20:10.779Z,101857.66
2022-12-29T06:22:38.248Z,101865.25
2022-12-29T06:25:06.516Z,101862.44
2022-12-29T06:27:35.061Z,101861.91
2022-12-29T06:30:02.167Z,101858.50
2022-12-29T06:32:29.268Z,101860.75
2022-12-29T06:35:02.746Z,101863.88
2022-12-29T06:37:29.753Z,101862.34
2022-12-29T06:39:56.965Z,101860.84
2022-12-29T06:42:28.702Z,101872.28
2022-12-29T06:45:18.837Z,101866.53
2022-12-29T06:47:46.130Z,101863.41
2022-12-29T06:50:13.177Z,101858.28
2022-12-29T06:52:40.082Z,101859.41
2022-12-29T06:55:07.466Z,101854.16
2022-12-29T06:57:34.367Z,101844.00
2022-12-29T07:00:01.358Z,101845.00
2022-12-29T07:02:28.326Z,101841.19
2022-12-29T07:04:55.391Z,101845.06
2022-12-29T07:07:22.347Z,101852.47
2022-12-29T07:09:49.351Z,101850.22
2022-12-29T07:12:16.348Z,101849.88
2022-12-29T07:14:44.602Z,101853.56
2022-12-29T07:17:11.992Z,101849.72
2022-12-29T07:19:39.042Z,101848.75
2022-12-29T07:22:11.405Z,101850.66
2022-12-29T07:24:38.602Z,101855.25
2022-12-29T07:27:05.929Z,101855.75
2022-12-29T07:29:33.204Z,101853.75
2022-12-29T07:32:00.495Z,101847.63
2022-12-29T07:34:27.564Z,101843.56
2022-12-29T07:36:54.793Z,101856.81
2022-12-29T07:39:21.780Z,101859.28
2022-12-29T07:41:48.619Z,101851.50
2022-12-29T07:44:19.391Z,101854.06
2022-12-29T07:46:59.461Z,101855.31
2022-12-29T07:49:27.513Z,101852.03
2022-12-29T07:51:54.388Z,101850.91
2022-12-29T07:54:21.488Z,101849.38
2022-12-29T07:56:48.351Z,101849.34
2022-12-29T07:59:15.259Z,101845.31
2022-12-29T08:01:42.288Z,101844.31
2022-12-29T08:04:09.697Z,101844.94
2022-12-29T08:06:37.790Z,101848.47
2022-12-29T08:09:12.435Z,101855.84
2022-12-29T08:11:41.835Z,101846.78
2022-12-29T08:14:08.615Z,101850.31
2022-12-29T08:16:38.047Z,101848.00
2022-12-29T08:19:06.119Z,101851.56
2022-12-29T08:21:33.351Z,101854.84
2022-12-29T08:24:00.394Z,101848.91
2022-12-29T08:26:27.391Z,101842.00
2022-12-29T08:28:55.510Z,101842.22
2022-12-29T08:31:23.053Z,101844.34
2022-12-29T08:33:53.815Z,101850.66
2022-12-29T08:36:20.888Z,101840.66
2022-12-29T08:38:47.998Z,101844.75
2022-12-29T08:41:15.604Z,101849.63
2022-12-29T08:43:42.461Z,101846.00
2022-12-29T08:46:09.358Z,101829.59
2022-12-29T08:48:36.244Z,101826.06
2022-12-29T08:51:03.687Z,101840.91
2022-12-29T08:53:33.033Z,101824.69
2022-12-29T08:56:05.394Z,101822.09
2022-12-29T08:58:42.294Z,101830.72
2022-12-29T09:01:11.094Z,101817.13
2022-12-29T09:04:12.688Z,101822.75
2022-12-29T09:06:25.361Z,101819.19
2022-12-29T09:08:55.949Z,101810.44
2022-12-29T09:11:25.005Z,101818.28
2022-12-29T09:13:53.081Z,101813.56
2022-12-29T09:16:22.508Z,101810.41
2022-12-29T09:18:49.676Z,101807.44
2022-12-29T09:21:17.973Z,101809.75
2022-12-29T09:23:44.915Z,101815.84
2022-12-29T09:26:11.903Z,101807.53
2022-12-29T09:28:39.112Z,101810.94
2022-12-29T09:31:06.237Z,101805.06
2022-12-29T09:33:35.860Z,101801.88
2022-12-29T09:36:03.683Z,101810.84
2022-12-29T09:38:30.981Z,101807.00
2022-12-29T09:41:27.740Z,101802.78
2022-12-29T09:44:06.228Z,101794.03
2022-12-29T09:46:41.537Z,101799.34
2022-12-29T09:49:22.308Z,101786.00
2022-12-29T09:51:54.605Z,101774.00
2022-12-29T09:54:54.932Z,101780.59
2022-12-29T09:57:28.876Z,101775.34
2022-12-29T10:00:01.587Z,101778.22
2022-12-29T10:02:38.952Z,101761.81
2022-12-29T10:05:24.429Z,101767.88
2022-12-29T10:08:27.688Z,101764.56
2022-12-29T10:11:16.847Z,101766.91
2022-12-29T10:13:52.883Z,101761.16
2022-12-29T10:16:35.165Z,101752.34
2022-12-29T10:19:02.058Z,101758.81
2022-12-29T10:21:42.822Z,101747.63
2022-12-29T10:24:13.258Z,101739.84
2022-12-29T10:26:45.188Z,101739.50
2022-12-29T10:29:19.984Z,101737.59
2022-12-29T10:32:07.645Z,101733.41
2022-12-29T10:34:40.740Z,101730.84
2022-12-29T10:37:34.118Z,101724.81
2022-12-29T10:40:13.939Z,101729.13
2022-12-29T10:42:46.130Z,101715.03
2022-12-29T10:45:15.599Z,101734.09
2022-12-29T10:48:20.400Z,101721.03
2022-12-29T10:50:48.702Z,101720.34
2022-12-29T10:53:26.477Z,101715.47
2022-12-29T10:55:54.682Z,101714.81
2022-12-29T10:58:22.266Z,101712.66
2022-12-29T11:00:54.807Z,101712.25
2022-12-29T11:03:47.052Z,101716.28
2022-12-29T11:06:28.505Z,101709.56
2022-12-29T11:08:59.646Z,101713.47
2022-12-29T11:11:44.574Z,101710.03
2022-12-29T11:14:19.513Z,101711.22
2022-12-29T11:16:58.202Z,101716.72
2022-12-29T11:19:28.084Z,101713.69
2022-12-29T11:21:55.720Z,101703.03
2022-12-29T11:24:30.779Z,101708.81
2022-12-29T11:27:21.645Z,101699.94
2022-12-29T11:29:49.854Z,101702.22
2022-12-29T11:32:28.490Z,101699.94
2022-12-29T11:34:58.453Z,101690.19
2022-12-29T11:37:32.609Z,101698.56
2022-12-29T11:40:05.458Z,101703.66
2022-12-29T11:42:43.147Z,101704.78
2022-12-29T11:45:17.573Z,101706.06
2022-12-29T11:47:48.192Z,101694.59
2022-12-29T11:50:36.988Z,101703.22
2022-12-29T11:53:24.934Z,101701.63
2022-12-29T11:55:58.700Z,101696.31
2022-12-29T11:58:33.651Z,101692.94
2022-12-29T12:01:24.384Z,101691.00
2022-12-29T12:04:02.662Z,101684.38
2022-12-29T12:06:35.153Z,101683.84
2022-12-29T12:09:15.738Z,101681.41
2022-12-29T12:11:46.451Z,101681.56
2022-12-29T12:14:38.792Z,101674.66
2022-12-29T12:17:39.495Z,101669.88
2022-12-29T12:20:25.853Z,101670.56
2022-12-29T12:22:52.992Z,101681.53
2022-12-29T12:25:24.801Z,101674.84
2022-12-29T12:28:05.529Z,101663.47
2022-12-29T12:30:40.305Z,101663.50
2022-12-29T12:33:16.435Z,101653.41
2022-12-29T12:35:57.905Z,101664.03
2022-12-29T12:38:36.523Z,101662.38
2022-12-29T12:41:34.986Z,101674.56
2022-12-29T12:44:19.932Z,101671.78
2022-12-29T12:47:12.856Z,101668.78
2022-12-29T12:49:49.237Z,101664.63
2022-12-29T12:52:43.738Z,101667.81
2022-12-29T12:55:19.709Z,101667.19
2022-12-29T12:58:10.499Z,101670.31
2022-12-29T13:01:06.428Z,101674.91
2022-12-29T13:04:00.859Z,101666.84
2022-12-29T13:06:48.147Z,101669.78
2022-12-29T13:09:42.217Z,101666.94
2022-12-29T13:12:16.137Z,101672.56
2022-12-29T13:17:27.185Z,101663.53
2022-12-29T13:20:11.301Z,101656.44
2022-12-29T13:22:51.429Z,101664.81
2022-12-29T13:25:35.533Z,101669.03
2022-12-29T13:28:21.204Z,101663.81
2022-12-29T13:31:05.767Z,101664.31
2022-12-29T13:33:42.457Z,101667.06
2022-12-29T13:36:26.241Z,101669.53
2022-12-29T13:39:04.439Z,101673.94
2022-12-29T13:41:40.746Z,101674.25
2022-12-29T13:44:13.260Z,101678.13
2022-12-29T13:46:43.642Z,101674.53
2022-12-29T13:49:19.808Z,101671.06
2022-12-29T13:51:51.328Z,101670.22
2022-12-29T13:54:55.628Z,101666.72
2022-12-29T13:57:59.523Z,101664.31
2022-12-29T14:00:31.528Z,101670.19
2022-12-29T14:03:05.870Z,101664.97
2022-12-29T14:05:33.433Z,101665.78
2022-12-29T14:08:06.016Z,101656.72
2022-12-29T14:10:39.042Z,101662.50
2022-12-29T14:13:22.265Z,101663.13
2022-12-29T14:15:55.245Z,101666.19
2022-12-29T14:18:28.063Z,101668.38
2022-12-29T14:21:05.414Z,101665.31
2022-12-29T14:23:35.374Z,101664.34
2022-12-29T14:26:08.379Z,101661.31
2022-12-29T14:28:42.158Z,101665.69
2022-12-29T14:31:15.042Z,101658.03
2022-12-29T14:34:02.534Z,101670.13
2022-12-29T14:36:38.878Z,101663.28
2022-12-29T14:39:31.311Z,101657.81
2022-12-29T14:42:10.051Z,101653.09
2022-12-29T14:45:01.924Z,101648.19
2022-12-29T14:47:35.374Z,101644.94
2022-12-29T14:50:05.019Z,101656.22
2022-12-29T14:52:32.577Z,101655.94
2022-12-29T14:55:08.321Z,101657.88
2022-12-29T14:57:42.001Z,101663.13
2022-12-29T15:00:19.129Z,101663.13
2022-12-29T15:03:15.607Z,101663.97
2022-12-29T15:05:49.798Z,101667.00
2022-12-29T15:08:25.153Z,101665.94
2022-12-29T15:11:04.281Z,101668.63
2022-12-29T15:28:22.546Z,101658.09
2022-12-29T15:31:02.357Z,101655.34
2022-12-29T15:33:30.150Z,101650.38
2022-12-29T15:36:03.505Z,101655.06
2022-12-29T15:38:38.645Z,101653.66
2022-12-29T15:41:19.641Z,101656.13
2022-12-29T15:43:54.406Z,101652.84
2022-12-29T15:46:21.453Z,101656.69
2022-12-29T15:48:48.995Z,101658.88
2022-12-29T15:51:26.063Z,101661.38
2022-12-29T15:53:53.732Z,101665.78
2022-12-29T15:56:21.031Z,101658.91
2022-12-29T15:58:51.461Z,101661.38
2022-12-29T16:01:36.973Z,101658.34
2022-12-29T16:04:09.595Z,101659.19
2022-12-29T16:06:45.641Z,101659.75
2022-12-29T16:09:20.880Z,101656.69
2022-12-29T16:11:51.522Z,101659.44
2022-12-29T16:14:22.562Z,101666.34
2022-12-29T16:16:51.042Z,101660.28
2022-12-29T16:19:49.703Z,101661.66
2022-12-29T16:22:31.177Z,101666.31
2022-12-29T16:25:04.797Z,101669.38
2022-12-29T16:27:34.951Z,101667.16
2022-12-29T16:30:17.368Z,101665.78
2022-12-29T16:32:49.538Z,101662.50
2022-12-29T16:35:45.304Z,101668.00
2022-12-29T16:38:16.528Z,101669.91
2022-12-29T16:40:59.785Z,101673.47
2022-12-29T16:43:32.717Z,101671.28
2022-12-29T16:46:17.004Z,101672.38
2022-12-29T16:48:52.086Z,101672.91
2022-12-29T16:51:43.929Z,101681.16
2022-12-29T16:54:24.347Z,101677.03
2022-12-29T16:56:52.775Z,101684.19
2022-12-29T16:59:30.194Z,101686.38
2022-12-29T17:01:59.587Z,101684.47
2022-12-29T17:04:26.545Z,101680.63
2022-12-29T17:06:53.433Z,101684.44
2022-12-29T17:09:23.333Z,101681.44
2022-12-29T17:12:01.246Z,101688.56
2022-12-29T17:14:42.403Z,101686.38
2022-12-29T17:17:12.627Z,101688.88
2022-12-29T17:19:39.817Z,101683.06
2022-12-29T17:22:14.518Z,101689.13
2022-12-29T17:24:41.324Z,101686.63
2022-12-29T17:27:10.593Z,101685.00
2022-12-29T17:29:39.821Z,101673.72
2022-12-29T17:32:12.860Z,101686.38
2022-12-29T17:34:41.756Z,101679.50
2022-12-29T17:37:30.066Z,101683.31
2022-12-29T17:39:57.112Z,101674.81
2022-12-29T17:42:24.256Z,101676.19
2022-12-29T17:44:51.358Z,101673.19
2022-12-29T17:47:18.229Z,101677.00
2022-12-29T17:49:47.880Z,101672.59
2022-12-29T17:52:17.168Z,101671.50
2022-12-29T17:54:51.131Z,101670.94
2022-12-29T17:57:19.384Z,101669.84
2022-12-29T17:59:46.490Z,101672.31
2022-12-29T18:02:30.889Z,101668.75
2022-12-29T18:04:59.293Z,101669.84
2022-12-29T18:07:35.435Z,101663.53
2022-12-29T18:10:03.930Z,101663.78
2022-12-29T18:12:37.945Z,101667.06
2022-12-29T18:15:05.294Z,101666.25
2022-12-29T18:17:32.192Z,101661.84
2022-12-29T18:19:59.052Z,101658.53
2022-12-29T18:22:29.004Z,101664.00
2022-12-29T18:24:56.084Z,101659.84
2022-12-29T18:27:23.092Z,101657.34
2022-12-29T18:29:50.141Z,101663.69
2022-12-29T18:32:17.901Z,101655.72
2022-12-29T18:34:45.343Z,101658.72
2022-12-29T18:37:13.171Z,101655.44
2022-12-29T18:39:42.951Z,101661.22
2022-12-29T18:42:16.167Z,101660.09
2022-12-29T18:44:43.132Z,101659.53
2022-12-29T18:47:10.146Z,101659.78
2022-12-29T18:49:37.086Z,101662.50
2022-12-29T18:52:04.055Z,101659.47
2022-12-29T18:54:33.258Z,101660.44
2022-12-29T18:57:00.288Z,101660.66
2022-12-29T18:59:27.177Z,101661.25
2022-12-29T19:01:54.156Z,101661.84
2022-12-29T19:04:22.433Z,101651.72
2022-12-29T19:06:49.297Z,101655.47
2022-12-29T19:09:16.239Z,101655.25
2022-12-29T19:11:43.390Z,101651.66
2022-12-29T19:14:17.488Z,101643.69
2022-12-29T19:16:49.950Z,101650.50
2022-12-29T19:19:17.511Z,101646.88
2022-12-29T19:21:44.753Z,101649.91
2022-12-29T19:24:11.573Z,101649.31
2022-12-29T19:26:40.614Z,101652.56
2022-12-29T19:29:15.837Z,101652.56
2022-12-29T19:31:42.995Z,101646.25
2022-12-29T19:34:13.367Z,101643.22
2022-12-29T19:36:41.742Z,101644.59
2022-12-29T19:39:08.635Z,101639.41
2022-12-29T19:41:35.572Z,101645.44
2022-12-29T19:44:02.639Z,101636.13
2022-12-29T19:46:29.724Z,101639.66
2022-12-29T19:48:59.071Z,101632.53
2022-12-29T19:51:26.321Z,101634.38
2022-12-29T19:53:54.010Z,101634.09
2022-12-29T19:56:21.075Z,101627.84
2022-12-29T19:58:48.054Z,101615.72
2022-12-29T20:01:19.115Z,101638.06
2022-12-29T20:03:46.438Z,101627.75
2022-12-29T20:06:14.153Z,101622.75
2022-12-29T20:08:41.424Z,101620.56
2022-12-29T20:11:10.087Z,101629.00
2022-12-29T20:13:37.137Z,101623.78
2022-12-29T20:16:07.719Z,101620.25
2022-12-29T20:18:38.042Z,101622.44
2022-12-29T20:21:13.210Z,101626.28
2022-12-29T20:23:41.502Z,101618.53
2022-12-29T20:26:13.479Z,101623.47
2022-12-29T20:28:40.639Z,101607.06
2022-12-29T20:31:14.432Z,101611.50
2022-12-29T20:33:41.838Z,101617.78
2022-12-29T20:36:12.366Z,101618.66
2022-12-29T20:38:39.372Z,101616.94
2022-12-29T20:41:06.539Z,101614.09
2022-12-29T20:43:34.133Z,101624.44
2022-12-29T20:46:00.991Z,101621.72
2022-12-29T20:48:28.025Z,101617.31
2022-12-29T20:50:59.481Z,101612.66
2022-12-29T20:53:28.006Z,101624.97
2022-12-29T20:55:55.469Z,101628.25
2022-12-29T20:58:23.892Z,101622.31
2022-12-29T21:00:51.528Z,101620.66
2022-12-29T21:03:18.480Z,101607.72
2022-12-29T21:05:46.108Z,101614.53
2022-12-29T21:08:13.067Z,101611.53
2022-12-29T21:10:39.950Z,101610.22
2022-12-29T21:13:06.826Z,101610.75
2022-12-29T21:15:33.621Z,101604.50
2022-12-29T21:18:00.517Z,101608.91
2022-12-29T21:20:31.672Z,101610.28
2022-12-29T21:23:00.810Z,101597.44
2022-12-29T21:25:38.993Z,101610.97
2022-12-29T21:28:07.644Z,101602.25
2022-12-29T21:30:35.205Z,101596.59
2022-12-29T21:33:02.252Z,101605.69
2022-12-29T21:35:29.131Z,101598.56
2022-12-29T21:37:56.179Z,101598.28
2022-12-29T21:40:23.020Z,101602.84
2022-12-29T21:42:53.026Z,101600.69
2022-12-29T21:45:25.853Z,101594.81
2022-12-29T21:48:12.595Z,101600.38
2022-12-29T21:51:02.678Z,101596.47
2022-12-29T21:53:38.267Z,101592.09
2022-12-29T21:56:19.724Z,101588.81
2022-12-29T21:59:07.705Z,101588.22
2022-12-29T22:01:56.371Z,101583.84
2022-12-29T22:04:44.137Z,101584.63
2022-12-29T22:07:31.129Z,101584.19
2022-12-29T22:10:16.508Z,101583.75
2022-12-29T22:13:01.853Z,101587.75
2022-12-29T22:15:31.826Z,101588.00
2022-12-29T22:17:59.983Z,101580.56
2022-12-29T22:20:29.945Z,101578.59
2022-12-29T22:22:56.880Z,101582.75
2022-12-29T22:25:24.264Z,101577.94
2022-12-29T22:27:55.640Z,101569.66
2022-12-29T22:30:26.165Z,101560.16
2022-12-29T22:32:53.184Z,101568.59
2022-12-29T22:35:20.003Z,101569.59
2022-12-29T22:37:46.943Z,101566.78
2022-12-29T22:40:13.894Z,101561.94
2022-12-29T22:42:40.936Z,101564.19
2022-12-29T22:45:08.380Z,101565.03
2022-12-29T22:47:35.245Z,101557.97
2022-12-29T22:50:02.382Z,101556.38
2022-12-29T22:52:29.145Z,101555.28
2022-12-29T22:54:58.185Z,101552.31
2022-12-29T22:57:30.545Z,101554.25
2022-12-29T22:59:57.639Z,101553.94
2022-12-29T23:02:24.819Z,101559.69
2022-12-29T23:05:07.269Z,101550.34
2022-12-29T23:07:35.562Z,101555.03
2022-12-29T23:10:03.990Z,101551.72
2022-12-29T23:12:31.654Z,101550.34
2022-12-29T23:14:58.662Z,101553.31
2022-12-29T23:17:25.588Z,101552.72
2022-12-29T23:19:53.564Z,101557.13
2022-12-29T23:22:20.836Z,101560.44
2022-12-29T23:24:47.708Z,101554.41
2022-12-29T23:27:14.639Z,101550.84
2022-12-29T23:29:41.591Z,101542.03
2022-12-29T23:32:08.548Z,101549.03
2022-12-29T23:34:35.494Z,101538.09
2022-12-29T23:37:02.489Z,101539.97
2022-12-29T23:39:29.596Z,101538.63
2022-12-29T23:41:56.493Z,101536.72
2022-12-29T23:44:23.497Z,101523.78
2022-12-29T23:46:50.623Z,101535.81
2022-12-29T23:49:17.653Z,101530.00
2022-12-29T23:51:44.691Z,101530.06
2022-12-29T23:54:11.592Z,101540.75
2022-12-29T23:56:38.419Z,101540.22
2022-12-29T23:59:06.231Z,101534.28
